Time;durP1;ratioP1;P1;durP2;ratioP2;P2;SDS_P1;SDS_P2;PMS_P1;PMS_P2;Temp;Humidity;BMP_temperature;BMP_pressure;BME280_temperature;BME280_humidity;BME280_pressure;Samples;Min_cycle;Max_cycle;Signal;HPM_P1;HPM_P2
2022/07/06 00:01:28;;;;;;;;;;;;;;;;;;5054932;28;19924;-22
2022/07/06 00:03:54;;;;;;;;;;;;;;;;;;5054625;28;20348;-25
2022/07/06 00:06:20;;;;;;;;;;;;;;;;;;5055108;28;20356;-24
2022/07/06 00:08:46;;;;;;;;;;;;;;;;;;5053863;28;20358;-23
2022/07/06 00:11:12;;;;;;;;;;;;;;;;;;5055047;28;20348;-22
2022/07/06 00:13:38;;;;;;;;;;;;;;;;;;5054650;28;19913;-23
2022/07/06 00:16:04;;;;;;;;;;;;;;;;;;5054676;28;19920;-23
2022/07/06 00:18:30;;;;;;;;;;;;;;;;;;5054764;28;20237;-22
2022/07/06 00:20:56;;;;;;;;;;;;;;;;;;5054769;28;19915;-23
2022/07/06 00:23:22;;;;;;;;;;;;;;;;;;5054678;28;19912;-23
2022/07/06 00:25:48;;;;;;;;;;;;;;;;;;5054723;28;19912;-23
2022/07/06 00:28:14;;;;;;;;;;;;;;;;;;5054672;28;19955;-23
2022/07/06 00:30:40;;;;;;;;;;;;;;;;;;5054613;28;19909;-22
2022/07/06 00:33:06;;;;;;;;;;;;;;;;;;5054615;28;19912;-25
2022/07/06 00:35:32;;;;;;;;;;;;;;;;;;5054385;28;19908;-22
2022/07/06 00:37:58;;;;;;;;;;;;;;;;;;5055101;28;19923;-23
2022/07/06 00:40:24;;;;;;;;;;;;;;;;;;5054505;28;19913;-24
2022/07/06 00:42:50;;;;;;;;;;;;;;;;;;5054534;28;19909;-22
2022/07/06 00:45:16;;;;;;;;;;;;;;;;;;5054755;28;20346;-23
2022/07/06 00:47:42;;;;;;;;;;;;;;;;;;5054778;28;19952;-22
2022/07/06 00:50:14;;;;;;;;;;;;;;;;;;5054724;28;19996;-23
2022/07/06 00:52:40;;;;;;;;;;;;;;;;;;5054318;28;19935;-22
2022/07/06 00:55:06;;;;;;;;;;;;;;;;;;5054928;28;19913;-23
2022/07/06 00:57:32;;;;;;;;;;;;;;;;;;5057094;28;19912;-22
2022/07/06 00:59:58;;;;;;;;;;;;;;;;;;5057966;28;20232;-24
2022/07/06 01:02:24;;;;;;;;;;;;;;;;;;5057857;28;19917;-23
2022/07/06 01:04:50;;;;;;;;;;;;;;;;;;5057937;28;20384;-23
2022/07/06 01:07:16;;;;;;;;;;;;;;;;;;5057878;28;19909;-25
2022/07/06 01:09:42;;;;;;;;;;;;;;;;;;5058275;28;19913;-23
2022/07/06 01:12:08;;;;;;;;;;;;;;;;;;5057680;28;19908;-22
2022/07/06 01:14:34;;;;;;;;;;;;;;;;;;5058288;28;19923;-25
2022/07/06 01:17:00;;;;;;;;;;;;;;;;;;5058150;28;19913;-22
2022/07/06 01:19:26;;;;;;;;;;;;;;;;;;5058146;28;19913;-22
2022/07/06 01:21:52;;;;;;;;;;;;;;;;;;5057356;28;19909;-22
2022/07/06 01:24:18;;;;;;;;;;;;;;;;;;5057495;28;19920;-24
2022/07/06 01:26:44;;;;;;;;;;;;;;;;;;5057432;28;19913;-24
2022/07/06 01:29:10;;;;;;;;;;;;;;;;;;5058020;28;20324;-24
2022/07/06 01:31:36;;;;;;;;;;;;;;;;;;5057676;28;19916;-23
2022/07/06 01:34:02;;;;;;;;;;;;;;;;;;5057370;28;20423;-22
2022/07/06 01:36:28;;;;;;;;;;;;;;;;;;5057837;28;19917;-23
2022/07/06 01:38:54;;;;;;;;;;;;;;;;;;5057229;28;20228;-22
2022/07/06 01:41:20;;;;;;;;;;;;;;;;;;5057223;28;19924;-22
2022/07/06 01:43:46;;;;;;;;;;;;;;;;;;5057162;28;19908;-26
2022/07/06 01:46:12;;;;;;;;;;;;;;;;;;5057104;28;19924;-23
2022/07/06 01:48:38;;;;;;;;;;;;;;;;;;5057342;28;19912;-24
2022/07/06 01:51:04;;;;;;;;;;;;;;;;;;5056932;28;19919;-25
2022/07/06 01:53:30;;;;;;;;;;;;;;;;;;5056923;28;19912;-26
2022/07/06 01:55:56;;;;;;;;;;;;;;;;;;5057182;28;20252;-25
2022/07/06 01:58:22;;;;;;;;;;;;;;;;;;5057009;28;20300;-22
2022/07/06 02:00:48;;;;;;;;;;;;;;;;;;5056822;28;19912;-25
2022/07/06 02:03:14;;;;;;;;;;;;;;;;;;5056572;28;19979;-25
2022/07/06 02:05:40;;;;;;;;;;;;;;;;;;5055753;28;20374;-23
2022/07/06 02:08:06;;;;;;;;;;;;;;;;;;5056605;28;19935;-22
2022/07/06 02:10:32;;;;;;;;;;;;;;;;;;5056664;28;20350;-23
2022/07/06 02:12:58;;;;;;;;;;;;;;;;;;5056563;28;20252;-23
2022/07/06 02:15:24;;;;;;;;;;;;;;;;;;5057112;28;19913;-22
2022/07/06 02:17:50;;;;;;;;;;;;;;;;;;5056422;28;19913;-22
2022/07/06 02:20:16;;;;;;;;;;;;;;;;;;5056671;28;20229;-27
2022/07/06 02:22:42;;;;;;;;;;;;;;;;;;5056706;28;19919;-23
2022/07/06 02:25:08;;;;;;;;;;;;;;;;;;5056364;28;20027;-23
2022/07/06 02:27:34;;;;;;;;;;;;;;;;;;5056387;28;19909;-24
2022/07/06 02:30:00;;;;;;;;;;;;;;;;;;5056801;28;20236;-25
2022/07/06 02:32:26;;;;;;;;;;;;;;;;;;5056227;28;19987;-22
2022/07/06 02:34:52;;;;;;;;;;;;;;;;;;5056228;28;19913;-22
2022/07/06 02:37:18;;;;;;;;;;;;;;;;;;5056091;28;19966;-22
2022/07/06 02:39:44;;;;;;;;;;;;;;;;;;5056109;28;20004;-23
2022/07/06 02:42:10;;;;;;;;;;;;;;;;;;5056001;28;19909;-22
2022/07/06 02:44:36;;;;;;;;;;;;;;;;;;5056042;28;19920;-26
2022/07/06 02:47:02;;;;;;;;;;;;;;;;;;5055960;28;20355;-23
2022/07/06 02:49:28;;;;;;;;;;;;;;;;;;5056213;28;19944;-22
2022/07/06 02:51:54;;;;;;;;;;;;;;;;;;5056091;28;19924;-22
2022/07/06 02:54:20;;;;;;;;;;;;;;;;;;5056162;28;19913;-24
2022/07/06 02:56:50;;;;;;;;;;;;;;;;;;5054798;28;20355;-23
2022/07/06 02:59:16;;;;;;;;;;;;;;;;;;5056030;28;19931;-26
2022/07/06 03:01:42;;;;;;;;;;;;;;;;;;5055641;28;20298;-23
2022/07/06 03:04:08;;;;;;;;;;;;;;;;;;5055447;28;19986;-24
2022/07/06 03:06:34;;;;;;;;;;;;;;;;;;5055607;28;19917;-26
2022/07/06 03:09:01;;;;;;;;;;;;;;;;;;5055573;28;19913;-26
2022/07/06 03:11:27;;;;;;;;;;;;;;;;;;5055781;28;20299;-25
2022/07/06 03:13:53;;;;;;;;;;;;;;;;;;5055449;28;19913;-23
2022/07/06 03:16:19;;;;;;;;;;;;;;;;;;5055672;28;20015;-27
2022/07/06 03:18:45;;;;;;;;;;;;;;;;;;5054974;28;19919;-23
2022/07/06 03:21:11;;;;;;;;;;;;;;;;;;5055698;28;19996;-23
2022/07/06 03:23:37;;;;;;;;;;;;;;;;;;5054527;28;19912;-25
2022/07/06 03:26:03;;;;;;;;;;;;;;;;;;5055586;28;19909;-22
2022/07/06 03:28:29;;;;;;;;;;;;;;;;;;5055315;28;19913;-24
2022/07/06 03:30:55;;;;;;;;;;;;;;;;;;5056044;28;20228;-23
2022/07/06 03:33:21;;;;;;;;;;;;;;;;;;5054165;28;19913;-24
2022/07/06 03:35:47;;;;;;;;;;;;;;;;;;5055048;28;19913;-22
2022/07/06 03:38:13;;;;;;;;;;;;;;;;;;5055385;28;19915;-23
2022/07/06 03:40:39;;;;;;;;;;;;;;;;;;5055406;28;20003;-22
2022/07/06 03:43:05;;;;;;;;;;;;;;;;;;5055345;28;19978;-22
2022/07/06 03:45:31;;;;;;;;;;;;;;;;;;5055321;28;19925;-23
2022/07/06 03:47:57;;;;;;;;;;;;;;;;;;5054999;28;19924;-23
2022/07/06 03:50:23;;;;;;;;;;;;;;;;;;5055316;28;19913;-23
2022/07/06 03:52:49;;;;;;;;;;;;;;;;;;5054902;28;19909;-26
2022/07/06 03:55:15;;;;;;;;;;;;;;;;;;5054917;28;19967;-22
2022/07/06 03:57:41;;;;;;;;;;;;;;;;;;5054797;28;20344;-22
2022/07/06 04:00:07;;;;;;;;;;;;;;;;;;5054831;28;20260;-22
2022/07/06 04:02:33;;;;;;;;;;;;;;;;;;5055072;28;19916;-22
2022/07/06 04:04:59;;;;;;;;;;;;;;;;;;5054979;28;20336;-24
2022/07/06 04:07:25;;;;;;;;;;;;;;;;;;5055047;28;20004;-22
2022/07/06 04:09:51;;;;;;;;;;;;;;;;;;5054989;28;19917;-24
2022/07/06 04:12:17;;;;;;;;;;;;;;;;;;5054549;28;19975;-23
2022/07/06 04:14:43;;;;;;;;;;;;;;;;;;5054623;28;20000;-23
2022/07/06 04:19:54;;;;;;;;;;;;;;;;;;5054597;28;20398;-22
2022/07/06 04:22:19;;;;;;;;;;;;;;;;;;5054460;28;19913;-22
2022/07/06 04:24:45;;;;;;;;;;;;;;;;;;5054499;28;19916;-25
2022/07/06 04:27:11;;;;;;;;;;;;;;;;;;5054513;28;19916;-23
2022/07/06 04:29:37;;;;;;;;;;;;;;;;;;5054556;28;19924;-22
2022/07/06 04:32:03;;;;;;;;;;;;;;;;;;5056230;28;19908;-23
2022/07/06 04:34:29;;;;;;;;;;;;;;;;;;5059006;28;19916;-23
2022/07/06 04:36:55;;;;;;;;;;;;;;;;;;5058231;28;20074;-27
2022/07/06 04:39:21;;;;;;;;;;;;;;;;;;5058592;28;19952;-24
2022/07/06 04:41:47;;;;;;;;;;;;;;;;;;5058175;28;19944;-22
2022/07/06 04:44:13;;;;;;;;;;;;;;;;;;5058183;28;19913;-24
2022/07/06 04:46:39;;;;;;;;;;;;;;;;;;5058466;28;19974;-22
2022/07/06 04:49:06;;;;;;;;;;;;;;;;;;5058031;28;20348;-23
2022/07/06 04:51:32;;;;;;;;;;;;;;;;;;5057954;28;19912;-22
2022/07/06 04:53:58;;;;;;;;;;;;;;;;;;5056838;28;19921;-22
2022/07/06 04:56:24;;;;;;;;;;;;;;;;;;5057839;28;19971;-22
2022/07/06 04:58:50;;;;;;;;;;;;;;;;;;5058509;28;19917;-25
2022/07/06 05:01:16;;;;;;;;;;;;;;;;;;5057832;28;19986;-23
2022/07/06 05:03:42;;;;;;;;;;;;;;;;;;5068478;28;19928;-23
2022/07/06 05:06:08;;;;;;;;;;;;;;;;;;5066157;28;19982;-22
2022/07/06 05:08:34;;;;;;;;;;;;;;;;;;5057734;28;19909;-24
2022/07/06 05:11:00;;;;;;;;;;;;;;;;;;5057648;28;19912;-23
2022/07/06 05:13:26;;;;;;;;;;;;;;;;;;5057617;28;20336;-23
2022/07/06 05:15:52;;;;;;;;;;;;;;;;;;5057543;28;19921;-22
2022/07/06 05:18:18;;;;;;;;;;;;;;;;;;5058011;28;20069;-23
2022/07/06 05:20:44;;;;;;;;;;;;;;;;;;5057482;28;19917;-23
2022/07/06 05:23:10;;;;;;;;;;;;;;;;;;5057499;28;19909;-22
2022/07/06 05:25:36;;;;;;;;;;;;;;;;;;5057182;28;19955;-23
2022/07/06 05:28:02;;;;;;;;;;;;;;;;;;5057249;28;19960;-24
2022/07/06 05:30:28;;;;;;;;;;;;;;;;;;5057253;28;19949;-22
2022/07/06 05:32:54;;;;;;;;;;;;;;;;;;5056137;28;19916;-24
2022/07/06 05:35:20;;;;;;;;;;;;;;;;;;5057432;28;19920;-22
2022/07/06 05:37:46;;;;;;;;;;;;;;;;;;5057370;28;19917;-24
2022/07/06 05:40:12;;;;;;;;;;;;;;;;;;5057074;28;20364;-24
2022/07/06 05:42:38;;;;;;;;;;;;;;;;;;5056568;28;19908;-22
2022/07/06 05:45:05;;;;;;;;;;;;;;;;;;5057312;28;19912;-22
2022/07/06 05:50:17;;;;;;;;;;;;;;;;;;5057142;28;19924;-26
2022/07/06 05:52:43;;;;;;;;;;;;;;;;;;5057191;28;19916;-22
2022/07/06 05:55:09;;;;;;;;;;;;;;;;;;5056793;28;19923;-23
2022/07/06 05:57:35;;;;;;;;;;;;;;;;;;5056861;28;20055;-25
2022/07/06 06:00:01;;;;;;;;;;;;;;;;;;5057210;28;19917;-22
2022/07/06 06:02:27;;;;;;;;;;;;;;;;;;5056631;28;19916;-22
2022/07/06 06:04:53;;;;;;;;;;;;;;;;;;5056522;28;19912;-22
2022/07/06 06:07:19;;;;;;;;;;;;;;;;;;5056942;28;19970;-24
2022/07/06 06:09:45;;;;;;;;;;;;;;;;;;5056598;28;19916;-23
2022/07/06 06:12:11;;;;;;;;;;;;;;;;;;5057125;28;19909;-24
2022/07/06 06:14:37;;;;;;;;;;;;;;;;;;5057127;28;19924;-22
2022/07/06 06:17:08;;;;;;;;;;;;;;;;;;5057053;28;20251;-22
2022/07/06 06:19:36;;;;;;;;;;;;;;;;;;5056662;28;19924;-23
2022/07/06 06:22:02;;;;;;;;;;;;;;;;;;5056271;28;19975;-26
2022/07/06 06:24:28;;;;;;;;;;;;;;;;;;5056345;28;19934;-23
2022/07/06 06:26:54;;;;;;;;;;;;;;;;;;5055397;28;19908;-23
2022/07/06 06:29:20;;;;;;;;;;;;;;;;;;5056896;28;19913;-22
2022/07/06 06:31:46;;;;;;;;;;;;;;;;;;5056739;28;19924;-22
2022/07/06 06:34:12;;;;;;;;;;;;;;;;;;5056115;28;19913;-25
2022/07/06 06:36:38;;;;;;;;;;;;;;;;;;5056002;28;19939;-22
2022/07/06 06:39:04;;;;;;;;;;;;;;;;;;5056102;28;19967;-26
2022/07/06 06:41:30;;;;;;;;;;;;;;;;;;5056003;28;20263;-24
2022/07/06 06:43:56;;;;;;;;;;;;;;;;;;5055849;28;19913;-25
2022/07/06 06:46:22;;;;;;;;;;;;;;;;;;5056071;28;19955;-23
2022/07/06 06:48:48;;;;;;;;;;;;;;;;;;5055676;28;19920;-23
2022/07/06 06:51:14;;;;;;;;;;;;;;;;;;5055601;28;19909;-23
2022/07/06 06:53:40;;;;;;;;;;;;;;;;;;5054896;28;19962;-22
2022/07/06 06:56:06;;;;;;;;;;;;;;;;;;5055499;28;19919;-23
2022/07/06 06:58:32;;;;;;;;;;;;;;;;;;5055588;28;19913;-23
2022/07/06 07:00:58;;;;;;;;;;;;;;;;;;5055528;28;20263;-23
2022/07/06 07:03:24;;;;;;;;;;;;;;;;;;5055806;28;19920;-25
2022/07/06 07:05:50;;;;;;;;;;;;;;;;;;5055296;28;19971;-22
2022/07/06 07:08:16;;;;;;;;;;;;;;;;;;5055296;28;19909;-23
2022/07/06 07:10:42;;;;;;;;;;;;;;;;;;5055875;28;19912;-23
2022/07/06 07:13:08;;;;;;;;;;;;;;;;;;5055535;28;20251;-22
2022/07/06 07:15:34;;;;;;;;;;;;;;;;;;5055643;28;20000;-24
2022/07/06 07:18:00;;;;;;;;;;;;;;;;;;5055226;28;20319;-23
2022/07/06 07:20:29;;;;;;;;;;;;;;;;;;5055179;28;19919;-25
2022/07/06 07:22:55;;;;;;;;;;;;;;;;;;5055089;28;19913;-23
2022/07/06 07:25:22;;;;;;;;;;;;;;;;;;5055116;28;19917;-24
2022/07/06 07:27:48;;;;;;;;;;;;;;;;;;5055679;28;19974;-32
2022/07/06 07:30:14;;;;;;;;;;;;;;;;;;5055062;28;19913;-23
2022/07/06 07:32:43;;;;;;;;;;;;;;;;;;5054082;28;19920;-22
2022/07/06 07:35:09;;;;;;;;;;;;;;;;;;5055052;28;20252;-24
2022/07/06 07:37:35;;;;;;;;;;;;;;;;;;5055514;28;19912;-23
2022/07/06 07:40:02;;;;;;;;;;;;;;;;;;5055154;28;20322;-23
2022/07/06 07:42:28;;;;;;;;;;;;;;;;;;5054791;28;19908;-23
2022/07/06 07:44:54;;;;;;;;;;;;;;;;;;5054878;28;19912;-23
2022/07/06 07:47:20;;;;;;;;;;;;;;;;;;5053797;28;19909;-24
2022/07/06 07:49:46;;;;;;;;;;;;;;;;;;5053693;28;20000;-23
2022/07/06 07:52:12;;;;;;;;;;;;;;;;;;5054638;28;19937;-22
2022/07/06 07:54:38;;;;;;;;;;;;;;;;;;5055248;28;19952;-24
2022/07/06 07:57:04;;;;;;;;;;;;;;;;;;5053775;28;19938;-22
2022/07/06 07:59:31;;;;;;;;;;;;;;;;;;5054623;28;19913;-23
2022/07/06 08:01:57;;;;;;;;;;;;;;;;;;5055139;28;20362;-24
2022/07/06 08:04:23;;;;;;;;;;;;;;;;;;5054914;28;19917;-23
2022/07/06 08:06:49;;;;;;;;;;;;;;;;;;5057950;28;19921;-23
2022/07/06 08:09:16;;;;;;;;;;;;;;;;;;5058851;28;19909;-23
2022/07/06 08:11:42;;;;;;;;;;;;;;;;;;5058913;28;20263;-23
2022/07/06 08:14:08;;;;;;;;;;;;;;;;;;5059281;28;20351;-22
2022/07/06 08:16:34;;;;;;;;;;;;;;;;;;5058637;28;20351;-24
2022/07/06 08:19:00;;;;;;;;;;;;;;;;;;5059046;28;20233;-23
2022/07/06 08:21:26;;;;;;;;;;;;;;;;;;5058892;28;19916;-23
2022/07/06 08:23:52;;;;;;;;;;;;;;;;;;5058453;28;20407;-22
2022/07/06 08:26:18;;;;;;;;;;;;;;;;;;5059018;28;20012;-22
2022/07/06 08:28:44;;;;;;;;;;;;;;;;;;5058498;28;20335;-24
2022/07/06 08:31:10;;;;;;;;;;;;;;;;;;5058302;28;19913;-23
2022/07/06 08:33:36;;;;;;;;;;;;;;;;;;5058642;28;20064;-22
2022/07/06 08:36:02;;;;;;;;;;;;;;;;;;5058067;28;19917;-25
2022/07/06 08:38:28;;;;;;;;;;;;;;;;;;5058271;28;19965;-24
2022/07/06 08:40:54;;;;;;;;;;;;;;;;;;5058347;28;19913;-24
2022/07/06 08:43:20;;;;;;;;;;;;;;;;;;5058428;28;19913;-22
2022/07/06 08:45:46;;;;;;;;;;;;;;;;;;5058133;28;19927;-23
2022/07/06 08:48:13;;;;;;;;;;;;;;;;;;5057155;28;19913;-23
2022/07/06 08:50:39;;;;;;;;;;;;;;;;;;5058173;28;20027;-23
2022/07/06 08:53:05;;;;;;;;;;;;;;;;;;5058610;28;19908;-22
2022/07/06 08:55:31;;;;;;;;;;;;;;;;;;5057021;28;20427;-23
2022/07/06 08:57:57;;;;;;;;;;;;;;;;;;5057932;28;20398;-23
2022/07/06 09:00:24;;;;;;;;;;;;;;;;;;5056964;28;19935;-23
2022/07/06 09:02:50;;;;;;;;;;;;;;;;;;5057818;28;20255;-22
2022/07/06 09:05:16;;;;;;;;;;;;;;;;;;5057895;28;19928;-23
2022/07/06 09:07:43;;;;;;;;;;;;;;;;;;5057742;28;19909;-23
2022/07/06 09:10:09;;;;;;;;;;;;;;;;;;5057623;28;19951;-24
2022/07/06 09:12:35;;;;;;;;;;;;;;;;;;5056732;28;19913;-23
2022/07/06 09:15:01;;;;;;;;;;;;;;;;;;5057700;28;20263;-26
2022/07/06 09:17:27;;;;;;;;;;;;;;;;;;5057306;28;20247;-23
2022/07/06 09:19:53;;;;;;;;;;;;;;;;;;5056600;28;19924;-24
2022/07/06 09:22:19;;;;;;;;;;;;;;;;;;5057372;28;19909;-23
2022/07/06 09:24:45;;;;;;;;;;;;;;;;;;5057440;28;19912;-24
2022/07/06 09:27:11;;;;;;;;;;;;;;;;;;5057109;28;19913;-25
2022/07/06 09:29:38;;;;;;;;;;;;;;;;;;5056307;28;19944;-23
2022/07/06 09:32:05;;;;;;;;;;;;;;;;;;5057216;28;19916;-26
2022/07/06 09:34:31;;;;;;;;;;;;;;;;;;5056362;28;20373;-27
2022/07/06 09:36:57;;;;;;;;;;;;;;;;;;5057530;28;19912;-24
2022/07/06 09:39:23;;;;;;;;;;;;;;;;;;5057090;28;19923;-24
2022/07/06 09:41:50;;;;;;;;;;;;;;;;;;5056909;28;19909;-24
2022/07/06 09:44:16;;;;;;;;;;;;;;;;;;5057035;28;19913;-23
2022/07/06 09:46:42;;;;;;;;;;;;;;;;;;5057602;28;19912;-23
2022/07/06 09:49:08;;;;;;;;;;;;;;;;;;5055960;28;19963;-23
2022/07/06 09:51:34;;;;;;;;;;;;;;;;;;5057143;28;19913;-24
2022/07/06 09:54:00;;;;;;;;;;;;;;;;;;5056750;28;19982;-22
2022/07/06 09:56:26;;;;;;;;;;;;;;;;;;5057289;28;19917;-23
2022/07/06 09:58:52;;;;;;;;;;;;;;;;;;5056764;28;19931;-22
2022/07/06 10:01:18;;;;;;;;;;;;;;;;;;5055620;28;19999;-24
2022/07/06 10:03:44;;;;;;;;;;;;;;;;;;5057070;28;19921;-22
2022/07/06 10:06:11;;;;;;;;;;;;;;;;;;5056501;28;19921;-23
2022/07/06 10:08:37;;;;;;;;;;;;;;;;;;5056979;28;20007;-23
2022/07/06 10:11:02;;;;;;;;;;;;;;;;;;5056414;28;20304;-22
2022/07/06 10:13:29;;;;;;;;;;;;;;;;;;5055313;28;19919;-22
2022/07/06 10:15:57;;;;;;;;;;;;;;;;;;5056370;28;20034;-24
2022/07/06 10:18:23;;;;;;;;;;;;;;;;;;5056845;28;19912;-22
2022/07/06 10:20:50;;;;;;;;;;;;;;;;;;5056213;28;19935;-26
2022/07/06 10:23:16;;;;;;;;;;;;;;;;;;5056125;28;20095;-23
2022/07/06 10:25:42;;;;;;;;;;;;;;;;;;5056395;28;19909;-22
2022/07/06 10:28:14;;;;;;;;;;;;;;;;;;5055726;28;19913;-22
2022/07/06 10:30:40;;;;;;;;;;;;;;;;;;5055421;28;19909;-23
2022/07/06 10:33:07;;;;;;;;;;;;;;;;;;5056508;28;19913;-22
2022/07/06 10:35:33;;;;;;;;;;;;;;;;;;5056248;28;19913;-23
2022/07/06 10:37:59;;;;;;;;;;;;;;;;;;5055926;28;20236;-22
2022/07/06 10:43:09;;;;;;;;;;;;;;;;;;5056074;28;19932;-22
2022/07/06 10:45:35;;;;;;;;;;;;;;;;;;5055911;28;19913;-22
2022/07/06 10:48:01;;;;;;;;;;;;;;;;;;5055955;28;20399;-22
2022/07/06 10:50:28;;;;;;;;;;;;;;;;;;5055852;28;19920;-22
2022/07/06 10:52:54;;;;;;;;;;;;;;;;;;5056045;28;20030;-22
2022/07/06 10:55:20;;;;;;;;;;;;;;;;;;5055652;28;19912;-24
2022/07/06 10:57:46;;;;;;;;;;;;;;;;;;5055632;28;19912;-23
2022/07/06 11:00:14;;;;;;;;;;;;;;;;;;5056230;28;19917;-22
2022/07/06 11:02:40;;;;;;;;;;;;;;;;;;5055441;28;19912;-22
2022/07/06 11:05:06;;;;;;;;;;;;;;;;;;5055329;28;20403;-23
2022/07/06 11:07:32;;;;;;;;;;;;;;;;;;5055892;28;19940;-22
2022/07/06 11:09:58;;;;;;;;;;;;;;;;;;5055483;28;19923;-23
2022/07/06 11:12:24;;;;;;;;;;;;;;;;;;5054390;28;19974;-25
2022/07/06 11:14:50;;;;;;;;;;;;;;;;;;5055306;28;19995;-24
2022/07/06 11:17:16;;;;;;;;;;;;;;;;;;5055074;28;19924;-22
2022/07/06 11:19:42;;;;;;;;;;;;;;;;;;5055604;28;19912;-24
2022/07/06 11:22:08;;;;;;;;;;;;;;;;;;5055450;28;20247;-22
2022/07/06 11:24:35;;;;;;;;;;;;;;;;;;5055047;28;19920;-23
2022/07/06 11:27:01;;;;;;;;;;;;;;;;;;5054722;28;20109;-23
2022/07/06 11:29:27;;;;;;;;;;;;;;;;;;5055359;28;20352;-23
2022/07/06 11:31:53;;;;;;;;;;;;;;;;;;5054935;28;19939;-22
2022/07/06 11:34:19;;;;;;;;;;;;;;;;;;5054761;28;19923;-23
2022/07/06 11:36:45;;;;;;;;;;;;;;;;;;5054732;28;19917;-23
2022/07/06 11:39:11;;;;;;;;;;;;;;;;;;5053909;28;19931;-23
2022/07/06 11:41:37;;;;;;;;;;;;;;;;;;5054565;28;19924;-23
2022/07/06 11:44:03;;;;;;;;;;;;;;;;;;5053977;28;19909;-24
2022/07/06 11:46:29;;;;;;;;;;;;;;;;;;5054911;28;19935;-22
2022/07/06 11:48:55;;;;;;;;;;;;;;;;;;5055385;28;19913;-22
2022/07/06 11:51:22;;;;;;;;;;;;;;;;;;5055118;28;20276;-22
2022/07/06 11:53:48;;;;;;;;;;;;;;;;;;5054815;28;20367;-23
2022/07/06 11:56:14;;;;;;;;;;;;;;;;;;5055058;28;19919;-24
2022/07/06 11:58:42;;;;;;;;;;;;;;;;;;5055101;28;19996;-23
2022/07/06 12:01:08;;;;;;;;;;;;;;;;;;5055035;28;19927;-23
2022/07/06 12:03:34;;;;;;;;;;;;;;;;;;5055033;28;19962;-27
2022/07/06 12:06:01;;;;;;;;;;;;;;;;;;5054597;28;19970;-22
2022/07/06 12:08:27;;;;;;;;;;;;;;;;;;5054848;28;19938;-23
2022/07/06 12:10:53;;;;;;;;;;;;;;;;;;5055236;28;19909;-22
2022/07/06 12:13:19;;;;;;;;;;;;;;;;;;5054880;28;19936;-22
2022/07/06 12:15:45;;;;;;;;;;;;;;;;;;5054839;28;19913;-23
2022/07/06 12:18:11;;;;;;;;;;;;;;;;;;5054621;28;19916;-22
2022/07/06 12:20:37;;;;;;;;;;;;;;;;;;5054828;28;19913;-23
2022/07/06 12:23:03;;;;;;;;;;;;;;;;;;5054559;28;19909;-23
2022/07/06 12:25:29;;;;;;;;;;;;;;;;;;5054528;28;19932;-22
2022/07/06 12:27:55;;;;;;;;;;;;;;;;;;5054932;28;19909;-25
2022/07/06 12:30:21;;;;;;;;;;;;;;;;;;5054318;28;19917;-23
2022/07/06 12:32:47;;;;;;;;;;;;;;;;;;5054836;28;19909;-25
2022/07/06 12:35:13;;;;;;;;;;;;;;;;;;5054392;28;19920;-23
2022/07/06 12:37:39;;;;;;;;;;;;;;;;;;5054271;28;19913;-23
2022/07/06 12:40:06;;;;;;;;;;;;;;;;;;5054422;28;19940;-22
2022/07/06 12:42:32;;;;;;;;;;;;;;;;;;5054203;28;20026;-23
2022/07/06 12:44:58;;;;;;;;;;;;;;;;;;5054345;28;19920;-24
2022/07/06 12:47:24;;;;;;;;;;;;;;;;;;5055286;28;19957;-22
2022/07/06 12:49:50;;;;;;;;;;;;;;;;;;5054036;28;20252;-23
2022/07/06 12:52:16;;;;;;;;;;;;;;;;;;5054057;28;19912;-23
2022/07/06 12:54:42;;;;;;;;;;;;;;;;;;5058314;28;20039;-22
2022/07/06 12:57:09;;;;;;;;;;;;;;;;;;5057655;28;20240;-25
2022/07/06 12:59:35;;;;;;;;;;;;;;;;;;5058096;28;20263;-23
2022/07/06 13:02:01;;;;;;;;;;;;;;;;;;5057727;28;19917;-23
2022/07/06 13:04:27;;;;;;;;;;;;;;;;;;5057731;28;19912;-22
2022/07/06 13:06:53;;;;;;;;;;;;;;;;;;5057676;28;19974;-23
2022/07/06 13:09:19;;;;;;;;;;;;;;;;;;5058034;28;19920;-25
2022/07/06 13:11:45;;;;;;;;;;;;;;;;;;5058255;28;19919;-22
2022/07/06 13:14:11;;;;;;;;;;;;;;;;;;5057607;28;19917;-23
2022/07/06 13:16:37;;;;;;;;;;;;;;;;;;5057600;28;19975;-23
2022/07/06 13:19:03;;;;;;;;;;;;;;;;;;5058148;28;19920;-22
2022/07/06 13:21:29;;;;;;;;;;;;;;;;;;5058580;28;20251;-27
2022/07/06 13:23:55;;;;;;;;;;;;;;;;;;5057418;28;19913;-22
2022/07/06 13:26:21;;;;;;;;;;;;;;;;;;5057774;28;19932;-26
2022/07/06 13:28:47;;;;;;;;;;;;;;;;;;5057646;28;20302;-23
2022/07/06 13:31:13;;;;;;;;;;;;;;;;;;5057376;28;19909;-24
2022/07/06 13:33:39;;;;;;;;;;;;;;;;;;5057184;28;19917;-22
2022/07/06 13:36:05;;;;;;;;;;;;;;;;;;5057557;28;19915;-24
2022/07/06 13:38:31;;;;;;;;;;;;;;;;;;5056093;28;20263;-22
2022/07/06 13:40:57;;;;;;;;;;;;;;;;;;5057615;28;20004;-24
2022/07/06 13:43:23;;;;;;;;;;;;;;;;;;5056972;28;20363;-23
2022/07/06 13:45:49;;;;;;;;;;;;;;;;;;5057031;28;19912;-23
2022/07/06 13:48:15;;;;;;;;;;;;;;;;;;5057567;28;19916;-23
2022/07/06 13:50:41;;;;;;;;;;;;;;;;;;5056954;28;20360;-23
2022/07/06 13:53:07;;;;;;;;;;;;;;;;;;5057407;28;19909;-23
2022/07/06 13:55:33;;;;;;;;;;;;;;;;;;5055967;28;19909;-25
2022/07/06 13:57:59;;;;;;;;;;;;;;;;;;5056676;28;19944;-23
2022/07/06 14:00:26;;;;;;;;;;;;;;;;;;5056675;28;20327;-26
2022/07/06 14:02:52;;;;;;;;;;;;;;;;;;5056453;28;20256;-22
2022/07/06 14:05:20;;;;;;;;;;;;;;;;;;5056044;28;20351;-22
2022/07/06 14:07:46;;;;;;;;;;;;;;;;;;5056922;28;19908;-23
2022/07/06 14:13:02;;;;;;;;;;;;;;;;;;5056539;28;19966;-23
2022/07/06 14:15:28;;;;;;;;;;;;;;;;;;5056515;28;19919;-23
2022/07/06 14:17:54;;;;;;;;;;;;;;;;;;5056369;28;19913;-23
2022/07/06 14:20:20;;;;;;;;;;;;;;;;;;5056377;28;19919;-23
2022/07/06 14:22:46;;;;;;;;;;;;;;;;;;5056513;28;19909;-27
2022/07/06 14:25:12;;;;;;;;;;;;;;;;;;5056417;28;20264;-25
2022/07/06 14:27:40;;;;;;;;;;;;;;;;;;5056148;28;19968;-23
2022/07/06 14:30:06;;;;;;;;;;;;;;;;;;5056399;28;19913;-23
2022/07/06 14:32:32;;;;;;;;;;;;;;;;;;5056393;28;19923;-25
2022/07/06 14:34:58;;;;;;;;;;;;;;;;;;5056168;28;19912;-23
2022/07/06 14:37:24;;;;;;;;;;;;;;;;;;5056234;28;19925;-24
2022/07/06 14:39:50;;;;;;;;;;;;;;;;;;5056879;28;19912;-23
2022/07/06 14:42:16;;;;;;;;;;;;;;;;;;5055917;28;19913;-26
2022/07/06 14:44:42;;;;;;;;;;;;;;;;;;5055939;28;19935;-22
2022/07/06 14:47:08;;;;;;;;;;;;;;;;;;5056423;28;20341;-24
2022/07/06 14:49:34;;;;;;;;;;;;;;;;;;5056469;28;19913;-22
2022/07/06 14:52:00;;;;;;;;;;;;;;;;;;5055839;28;19951;-22
2022/07/06 14:54:26;;;;;;;;;;;;;;;;;;5055762;28;19916;-24
2022/07/06 14:56:52;;;;;;;;;;;;;;;;;;5054712;28;19917;-23
2022/07/06 14:59:19;;;;;;;;;;;;;;;;;;5056210;28;19913;-22
2022/07/06 15:01:45;;;;;;;;;;;;;;;;;;5056103;28;19913;-23
2022/07/06 15:04:11;;;;;;;;;;;;;;;;;;5055735;28;19921;-25
2022/07/06 15:06:37;;;;;;;;;;;;;;;;;;5054699;28;20275;-23
2022/07/06 15:09:06;;;;;;;;;;;;;;;;;;5056149;28;19920;-24
2022/07/06 15:11:32;;;;;;;;;;;;;;;;;;5055446;28;19908;-21
2022/07/06 15:13:58;;;;;;;;;;;;;;;;;;5055393;28;19912;-22
2022/07/06 15:16:24;;;;;;;;;;;;;;;;;;5054967;28;20306;-23
2022/07/06 15:18:50;;;;;;;;;;;;;;;;;;5055275;28;19919;-23
2022/07/06 15:21:16;;;;;;;;;;;;;;;;;;5055370;28;19909;-20
2022/07/06 15:23:42;;;;;;;;;;;;;;;;;;5055219;28;19935;-20
2022/07/06 15:26:08;;;;;;;;;;;;;;;;;;5056361;28;19909;-21
2022/07/06 15:28:34;;;;;;;;;;;;;;;;;;5055878;28;19936;-25
2022/07/06 15:31:00;;;;;;;;;;;;;;;;;;5055277;28;19909;-22
2022/07/06 15:33:26;;;;;;;;;;;;;;;;;;5055088;28;19913;-21
2022/07/06 15:35:52;;;;;;;;;;;;;;;;;;5055476;28;20225;-21
2022/07/06 15:38:18;;;;;;;;;;;;;;;;;;5055033;28;19913;-22
2022/07/06 15:40:51;;;;;;;;;;;;;;;;;;5055867;28;19913;-22
2022/07/06 15:43:18;;;;;;;;;;;;;;;;;;5054958;28;19920;-21
2022/07/06 15:45:43;;;;;;;;;;;;;;;;;;5055038;28;19913;-21
2022/07/06 15:48:09;;;;;;;;;;;;;;;;;;5055195;28;19920;-24
2022/07/06 15:50:35;;;;;;;;;;;;;;;;;;5055220;28;19913;-21
2022/07/06 15:53:01;;;;;;;;;;;;;;;;;;5054924;28;20255;-21
2022/07/06 15:55:27;;;;;;;;;;;;;;;;;;5054879;28;19916;-21
2022/07/06 15:57:53;;;;;;;;;;;;;;;;;;5053893;28;19975;-24
2022/07/06 16:00:19;;;;;;;;;;;;;;;;;;5055124;28;20267;-22
2022/07/06 16:02:45;;;;;;;;;;;;;;;;;;5054864;28;19966;-22
2022/07/06 16:05:11;;;;;;;;;;;;;;;;;;5054805;28;19951;-21
2022/07/06 16:07:37;;;;;;;;;;;;;;;;;;5054756;28;19916;-22
2022/07/06 16:10:03;;;;;;;;;;;;;;;;;;5055295;28;20266;-23
2022/07/06 16:12:29;;;;;;;;;;;;;;;;;;5054517;28;19916;-23
2022/07/06 16:14:55;;;;;;;;;;;;;;;;;;5054715;28;19975;-24
2022/07/06 16:17:21;;;;;;;;;;;;;;;;;;5054644;28;19917;-21
2022/07/06 16:19:47;;;;;;;;;;;;;;;;;;5054762;28;20000;-22
2022/07/06 16:22:13;;;;;;;;;;;;;;;;;;5054635;28;19909;-22
2022/07/06 16:24:39;;;;;;;;;;;;;;;;;;5054569;28;19917;-22
2022/07/06 16:27:05;;;;;;;;;;;;;;;;;;5056876;28;19909;-22
2022/07/06 16:29:31;;;;;;;;;;;;;;;;;;5059049;28;19927;-21
2022/07/06 16:31:57;;;;;;;;;;;;;;;;;;5058360;28;20336;-22
2022/07/06 16:34:23;;;;;;;;;;;;;;;;;;5058414;28;19924;-22
2022/07/06 16:36:49;;;;;;;;;;;;;;;;;;5057396;28;19912;-23
2022/07/06 16:39:15;;;;;;;;;;;;;;;;;;5058733;28;19978;-22
2022/07/06 16:41:41;;;;;;;;;;;;;;;;;;5058594;28;20011;-25
2022/07/06 16:44:07;;;;;;;;;;;;;;;;;;5058176;28;19962;-24
2022/07/06 16:46:33;;;;;;;;;;;;;;;;;;5058798;28;20019;-22
2022/07/06 16:48:59;;;;;;;;;;;;;;;;;;5058246;28;20006;-22